CMA CGM Thalassa — 5BNE2 — position and weather

sailwx.info

Track history (hours):
 
Tides and Currents Weather Stations Pressure Air Temp Water Temp Dewpoint Dewpoint Depression Visibility Wind Speed Wind Dir Waves Ship Positions

CMA CGM Thalassa

Last reported at 2014-Sep-16 18:22 UTC. Time now 2014-Sep-17 03:28 UTC.
Position N 34°23' E 124°50'.

Length 347 m; draft 12.8 m.

Type: Ship (hazmat cat A). MMSI: 212151000.

Date/timePositionNaut miles runAvg speedWind from/ knotsBaromVisibWave heightAir tempDewpointWater temp
2014-Sep-16 18:22N 34°23' E 124°50'3712.9
2014-Sep-16 15:31N 34°04' E 125°28'1512.7
2014-Sep-16 14:21N 33°55' E 125°43'  
2014-Sep-14 01:17N 37°10' E 123°34'6513.7
2014-Sep-13 20:32N 38°05' E 122°50'1814.7
2014-Sep-13 19:17N 38°18' E 122°33'2714.3
2014-Sep-13 17:23N 38°37' E 122°08'1214.1
2014-Sep-13 16:34N 38°47' E 122°00'1311.7
2014-Sep-13 15:27N 38°59' E 121°55'2 0.1
2014-Sep-12 19:33N 38°58' E 121°57'9 9.2
2014-Sep-12 18:33N 38°49' E 121°53'1313.4
2014-Sep-12 17:33N 38°36' E 121°48'1413.5
2014-Sep-12 16:30N 38°31' E 121°31'1414.5
2014-Sep-12 15:33N 38°28' E 121°14'1413.7
2014-Sep-12 14:33N 38°31' E 120°57'8 8.3
2014-Sep-12 13:33N 38°35' E 120°47'1111.2
2014-Sep-12 12:34N 38°37' E 120°33'2316.8
2014-Sep-12 11:13N 38°40' E 120°05'9216.2
2014-Sep-12 05:33N 38°54' E 118°08'1212.0
2014-Sep-12 04:33N 38°57' E 117°53'5 4.6
2014-Sep-12 03:31N 38°59' E 117°47'0 0.0
2014-Sep-12 02:24N 38°59' E 117°47'0 0.0
2014-Sep-12 01:24N 38°59' E 117°47'0 0.0
2014-Sep-12 00:30N 38°59' E 117°47'0 0.0
2014-Sep-11 23:29N 38°59' E 117°47'0 0.0
2014-Sep-11 22:23N 38°59' E 117°47'0 0.0
2014-Sep-11 21:28N 38°59' E 117°47'0 0.0
2014-Sep-11 20:22N 38°59' E 117°47'0 0.0
2014-Sep-11 19:33N 38°59' E 117°47'0 0.0
2014-Sep-11 18:33N 38°59' E 117°47'0 0.0
2014-Sep-11 17:26N 38°59' E 117°47'0 0.0
2014-Sep-11 16:26N 38°59' E 117°47'0 0.0
2014-Sep-11 15:32N 38°59' E 117°47'0 0.0
2014-Sep-11 14:31N 38°59' E 117°47'0 0.0
2014-Sep-11 13:31N 38°59' E 117°47'0 0.0
2014-Sep-11 12:24N 38°59' E 117°47'0 0.0
2014-Sep-11 11:30N 38°59' E 117°47'0 0.0
2014-Sep-11 10:30N 38°59' E 117°47'0 0.0
2014-Sep-11 09:29N 38°59' E 117°47'0 0.0
2014-Sep-11 08:29N 38°59' E 117°47'0 0.0
2014-Sep-11 07:28N 38°59' E 117°47'0 0.0
2014-Sep-11 06:22N 38°59' E 117°47'0 0.0
2014-Sep-11 05:33N 38°59' E 117°47'0 0.0
2014-Sep-11 04:33N 38°59' E 117°47'0 0.0
2014-Sep-11 03:14N 38°59' E 117°47'0 0.0
2014-Sep-11 02:32N 38°59' E 117°47'0 0.0
2014-Sep-11 01:32N 38°59' E 117°47'0 0.0
2014-Sep-11 00:31N 38°59' E 117°47'0 0.0
2014-Sep-10 23:31N 38°59' E 117°47'0 0.0
2014-Sep-10 22:30N 38°59' E 117°47'0 0.0
2014-Sep-10 21:30N 38°59' E 117°47'0 0.0
2014-Sep-10 20:29N 38°59' E 117°47'0 0.0
2014-Sep-10 19:23N 38°59' E 117°47'1 1.1
2014-Sep-10 18:32N 38°58' E 117°48'1010.5
2014-Sep-10 17:33N 38°56' E 118°01'2311.4
2014-Sep-10 15:33N 38°50' E 118°30'1514.9
2014-Sep-10 14:33N 38°49' E 118°49'3115.0
2014-Sep-10 12:30N 38°48' E 119°28'2014.8
2014-Sep-10 11:09N 38°45' E 119°54'1014.5
2014-Sep-10 10:30N 38°44' E 120°06'2914.4
2014-Sep-10 08:28N 38°39' E 120°43'8 8.4
2014-Sep-10 07:33N 38°38' E 120°52'1010.5
2014-Sep-10 06:33N 38°33' E 121°04'1913.9
2014-Sep-10 05:13N 38°25' E 121°26'1513.9
2014-Sep-10 04:06N 38°20' E 121°45'12813.1
2014-Sep-09 18:18N 36°51' E 123°41'1314.2
2014-Sep-09 17:25N 36°39' E 123°46'41214.1
2014-Sep-08 12:15N 29°47' E 123°31'1215.9
2014-Sep-08 11:28N 29°36' E 123°25'1814.9
2014-Sep-08 10:16N 29°21' E 123°13'1114.0
2014-Sep-08 09:31N 29°12' E 123°06'2913.7
2014-Sep-08 07:25N 28°48' E 122°48'22914.0
2014-Sep-07 15:06N 25°34' E 120°31'813.5
2014-Sep-07 14:32N 25°28' E 120°27'1312.9
2014-Sep-07 13:32N 25°18' E 120°19'1312.8
2014-Sep-07 12:33N 25°07' E 120°11'1313.0
2014-Sep-07 11:33N 24°58' E 120°00'1413.8
2014-Sep-07 10:33N 24°50' E 119°49'1514.8
2014-Sep-07 09:33N 24°40' E 119°36'1615.4
2014-Sep-07 08:33N 24°30' E 119°23'1514.7
2014-Sep-07 07:33N 24°20' E 119°11'1414.0
2014-Sep-07 06:33N 24°12' E 118°59'1313.5
2014-Sep-07 05:33N 24°04' E 118°47'2713.1
2014-Sep-07 03:32N 23°47' E 118°24'1313.4
2014-Sep-07 02:33N 23°41' E 118°12'1413.9
2014-Sep-07 01:33N 23°33' E 117°59'1814.0
2014-Sep-07 00:15N 23°21' E 117°45'  
Track history (hours):
 
Tides and Currents Weather Stations Pressure Air Temp Water Temp Dewpoint Dewpoint Depression Visibility Wind Speed Wind Dir Waves Ship Positions

CMA CGM Thalassa

Last reported at 2014-Sep-16 18:22 UTC. Time now 2014-Sep-17 03:28 UTC.
Position N 34°23' E 124°50'.

Length 347 m; draft 12.8 m.

Type: Ship (hazmat cat A). MMSI: 212151000.

Date/timePositionNaut miles runAvg speedWind from/ knotsBaromVisibWave heightAir tempDewpointWater temp
2014-Sep-16 18:22N 34°23' E 124°50'3712.9
2014-Sep-16 15:31N 34°04' E 125°28'1512.7
2014-Sep-16 14:21N 33°55' E 125°43'  
2014-Sep-14 01:17N 37°10' E 123°34'6513.7
2014-Sep-13 20:32N 38°05' E 122°50'1814.7
2014-Sep-13 19:17N 38°18' E 122°33'2714.3
2014-Sep-13 17:23N 38°37' E 122°08'1214.1
2014-Sep-13 16:34N 38°47' E 122°00'1311.7
2014-Sep-13 15:27N 38°59' E 121°55'2 0.1
2014-Sep-12 19:33N 38°58' E 121°57'9 9.2
2014-Sep-12 18:33N 38°49' E 121°53'1313.4
2014-Sep-12 17:33N 38°36' E 121°48'1413.5
2014-Sep-12 16:30N 38°31' E 121°31'1414.5
2014-Sep-12 15:33N 38°28' E 121°14'1413.7
2014-Sep-12 14:33N 38°31' E 120°57'8 8.3
2014-Sep-12 13:33N 38°35' E 120°47'1111.2
2014-Sep-12 12:34N 38°37' E 120°33'2316.8
2014-Sep-12 11:13N 38°40' E 120°05'9216.2
2014-Sep-12 05:33N 38°54' E 118°08'1212.0
2014-Sep-12 04:33N 38°57' E 117°53'5 4.6
2014-Sep-12 03:31N 38°59' E 117°47'0 0.0
2014-Sep-12 02:24N 38°59' E 117°47'0 0.0
2014-Sep-12 01:24N 38°59' E 117°47'0 0.0
2014-Sep-12 00:30N 38°59' E 117°47'0 0.0
2014-Sep-11 23:29N 38°59' E 117°47'0 0.0
2014-Sep-11 22:23N 38°59' E 117°47'0 0.0
2014-Sep-11 21:28N 38°59' E 117°47'0 0.0
2014-Sep-11 20:22N 38°59' E 117°47'0 0.0
2014-Sep-11 19:33N 38°59' E 117°47'0 0.0
2014-Sep-11 18:33N 38°59' E 117°47'0 0.0
2014-Sep-11 17:26N 38°59' E 117°47'0 0.0
2014-Sep-11 16:26N 38°59' E 117°47'0 0.0
2014-Sep-11 15:32N 38°59' E 117°47'0 0.0
2014-Sep-11 14:31N 38°59' E 117°47'0 0.0
2014-Sep-11 13:31N 38°59' E 117°47'0 0.0
2014-Sep-11 12:24N 38°59' E 117°47'0 0.0
2014-Sep-11 11:30N 38°59' E 117°47'0 0.0
2014-Sep-11 10:30N 38°59' E 117°47'0 0.0
2014-Sep-11 09:29N 38°59' E 117°47'0 0.0
2014-Sep-11 08:29N 38°59' E 117°47'0 0.0
2014-Sep-11 07:28N 38°59' E 117°47'0 0.0
2014-Sep-11 06:22N 38°59' E 117°47'0 0.0
2014-Sep-11 05:33N 38°59' E 117°47'0 0.0
2014-Sep-11 04:33N 38°59' E 117°47'0 0.0
2014-Sep-11 03:14N 38°59' E 117°47'0 0.0
2014-Sep-11 02:32N 38°59' E 117°47'0 0.0
2014-Sep-11 01:32N 38°59' E 117°47'0 0.0
2014-Sep-11 00:31N 38°59' E 117°47'0 0.0
2014-Sep-10 23:31N 38°59' E 117°47'0 0.0
2014-Sep-10 22:30N 38°59' E 117°47'0 0.0
2014-Sep-10 21:30N 38°59' E 117°47'0 0.0
2014-Sep-10 20:29N 38°59' E 117°47'0 0.0
2014-Sep-10 19:23N 38°59' E 117°47'1 1.1
2014-Sep-10 18:32N 38°58' E 117°48'1010.5
2014-Sep-10 17:33N 38°56' E 118°01'2311.4
2014-Sep-10 15:33N 38°50' E 118°30'1514.9
2014-Sep-10 14:33N 38°49' E 118°49'3115.0
2014-Sep-10 12:30N 38°48' E 119°28'2014.8
2014-Sep-10 11:09N 38°45' E 119°54'1014.5
2014-Sep-10 10:30N 38°44' E 120°06'2914.4
2014-Sep-10 08:28N 38°39' E 120°43'8 8.4
2014-Sep-10 07:33N 38°38' E 120°52'1010.5
2014-Sep-10 06:33N 38°33' E 121°04'1913.9
2014-Sep-10 05:13N 38°25' E 121°26'1513.9
2014-Sep-10 04:06N 38°20' E 121°45'12813.1
2014-Sep-09 18:18N 36°51' E 123°41'1314.2
2014-Sep-09 17:25N 36°39' E 123°46'41214.1
2014-Sep-08 12:15N 29°47' E 123°31'1215.9
2014-Sep-08 11:28N 29°36' E 123°25'1814.9
2014-Sep-08 10:16N 29°21' E 123°13'1114.0
2014-Sep-08 09:31N 29°12' E 123°06'2913.7
2014-Sep-08 07:25N 28°48' E 122°48'22914.0
2014-Sep-07 15:06N 25°34' E 120°31'813.5
2014-Sep-07 14:32N 25°28' E 120°27'1312.9
2014-Sep-07 13:32N 25°18' E 120°19'1312.8
2014-Sep-07 12:33N 25°07' E 120°11'1313.0
2014-Sep-07 11:33N 24°58' E 120°00'1413.8
2014-Sep-07 10:33N 24°50' E 119°49'1514.8
2014-Sep-07 09:33N 24°40' E 119°36'1615.4
2014-Sep-07 08:33N 24°30' E 119°23'1514.7
2014-Sep-07 07:33N 24°20' E 119°11'1414.0
2014-Sep-07 06:33N 24°12' E 118°59'1313.5
2014-Sep-07 05:33N 24°04' E 118°47'2713.1
2014-Sep-07 03:32N 23°47' E 118°24'1313.4
2014-Sep-07 02:33N 23°41' E 118°12'1413.9
2014-Sep-07 01:33N 23°33' E 117°59'1814.0
2014-Sep-07 00:15N 23°21' E 117°45'  

Dump ship's entire track history